createdAt,value
2016-09-01T00:00:02.837Z,1013.94
2016-09-01T00:01:02.240Z,1013.97
2016-09-01T00:02:02.218Z,1013.92
2016-09-01T00:03:02.203Z,1013.94
2016-09-01T00:04:02.190Z,1013.94
2016-09-01T00:05:02.178Z,1013.9
2016-09-01T00:06:02.171Z,1013.92
2016-09-01T00:07:02.157Z,1013.93
2016-09-01T00:08:02.143Z,1013.9
2016-09-01T00:09:02.132Z,1013.88
2016-09-01T00:10:02.123Z,1013.9
2016-09-01T00:11:02.108Z,1013.88
2016-09-01T00:12:02.102Z,1013.87
2016-09-01T00:13:02.080Z,1013.86
2016-09-01T00:14:02.070Z,1013.88
2016-09-01T00:15:02.062Z,1013.89
2016-09-01T00:16:02.046Z,1013.91
2016-09-01T00:17:02.029Z,1013.89
2016-09-01T00:18:02.020Z,1013.9
2016-09-01T00:19:02.012Z,1013.9
2016-09-01T00:20:02.002Z,1013.91
2016-09-01T00:21:01.983Z,1013.91
2016-09-01T00:22:01.971Z,1013.92
2016-09-01T00:23:01.957Z,1013.95
2016-09-01T00:24:01.949Z,1013.92
2016-09-01T00:25:01.932Z,1013.93
2016-09-01T00:26:01.923Z,1013.93
2016-09-01T00:27:01.908Z,1013.97
2016-09-01T00:28:01.902Z,1013.94
2016-09-01T00:29:01.893Z,1013.94
2016-09-01T00:30:01.872Z,1013.92
2016-09-01T00:31:01.862Z,1013.87
2016-09-01T00:32:01.853Z,1013.87
2016-09-01T00:33:01.839Z,1013.89
2016-09-01T00:34:01.820Z,1013.83
2016-09-01T00:35:01.811Z,1013.85
2016-09-01T00:36:01.803Z,1013.86
2016-09-01T00:37:01.787Z,1013.86
2016-09-01T00:38:01.774Z,1013.84
2016-09-01T00:39:01.762Z,1013.87
2016-09-01T00:40:01.749Z,1013.92
2016-09-01T00:41:01.735Z,1013.9
2016-09-01T00:42:01.721Z,1013.95
2016-09-01T00:43:01.729Z,1014
2016-09-01T00:44:01.699Z,1013.97
2016-09-01T00:45:01.692Z,1013.97
2016-09-01T00:46:01.682Z,1013.99
2016-09-01T00:47:01.662Z,1013.97
2016-09-01T00:48:01.652Z,1013.99
2016-09-01T00:49:01.639Z,1013.96
2016-09-01T00:50:01.624Z,1013.98
2016-09-01T00:51:01.615Z,1013.99
2016-09-01T00:52:01.601Z,1014.02
2016-09-01T00:53:01.592Z,1014.03
2016-09-01T00:54:01.573Z,1014.06
2016-09-01T00:55:01.562Z,1014.07
2016-09-01T00:56:01.547Z,1014.08
2016-09-01T00:57:01.539Z,1014.11
2016-09-01T00:58:01.530Z,1014.12
2016-09-01T00:59:01.519Z,1014.14
2016-09-01T01:00:01.502Z,1014.13
2016-09-01T01:01:01.487Z,1014.14
2016-09-01T01:02:01.483Z,1014.12
2016-09-01T01:03:01.473Z,1014.13
2016-09-01T01:04:01.451Z,1014.13
2016-09-01T01:05:01.939Z,1014.15
2016-09-01T01:06:01.428Z,1014.14
2016-09-01T01:07:01.414Z,1014.11
2016-09-01T01:08:01.409Z,1014.12
2016-09-01T01:09:01.391Z,1014.12
2016-09-01T01:10:01.380Z,1014.07
2016-09-01T01:11:01.365Z,1014.09
2016-09-01T01:12:01.350Z,1014.09
2016-09-01T01:13:01.339Z,1014.04
2016-09-01T01:14:01.332Z,1014.06
2016-09-01T01:15:01.322Z,1014.05
2016-09-01T01:16:01.302Z,1014.08
2016-09-01T01:17:01.292Z,1014.07
2016-09-01T01:18:01.278Z,1014.06
2016-09-01T01:19:01.268Z,1014.05
2016-09-01T01:20:01.252Z,1014.06
2016-09-01T01:21:01.242Z,1014.05
2016-09-01T01:22:01.232Z,1014.05
2016-09-01T01:23:01.215Z,1014.06
2016-09-01T01:24:01.206Z,1014.08
2016-09-01T01:25:01.191Z,1014.11
2016-09-01T01:26:01.179Z,1014.14
2016-09-01T01:27:01.171Z,1014.12
2016-09-01T01:28:01.160Z,1014.16
2016-09-01T01:29:01.139Z,1014.17
2016-09-01T01:30:01.131Z,1014.18
2016-09-01T01:31:01.117Z,1014.14
2016-09-01T01:32:01.108Z,1014.16
2016-09-01T01:33:01.091Z,1014.19
2016-09-01T01:34:01.080Z,1014.19
2016-09-01T01:35:01.073Z,1014.16
2016-09-01T01:36:01.060Z,1014.17
2016-09-01T01:37:01.040Z,1014.13
2016-09-01T01:38:01.023Z,1014.09
2016-09-01T01:39:01.017Z,1014.07
2016-09-01T01:40:01.015Z,1014.1
2016-09-01T01:41:00.991Z,1014.08
2016-09-01T01:42:00.980Z,1014.03
2016-09-01T01:43:00.968Z,1014.01
2016-09-01T01:44:00.951Z,1014.02
2016-09-01T01:45:00.942Z,1013.97
2016-09-01T01:46:00.932Z,1013.97
2016-09-01T01:47:00.921Z,1013.99
2016-09-01T01:48:00.902Z,1013.96
2016-09-01T01:49:00.901Z,1013.94
2016-09-01T01:50:00.890Z,1013.96
2016-09-01T01:51:00.912Z,1013.95
2016-09-01T01:52:00.850Z,1013.97
2016-09-01T01:53:00.839Z,1013.94
2016-09-01T01:54:00.825Z,1013.98
2016-09-01T01:55:00.821Z,1013.95
2016-09-01T01:56:00.798Z,1014.01
2016-09-01T01:57:00.786Z,1014.01
2016-09-01T01:58:00.771Z,1014.03
2016-09-01T01:59:00.762Z,1013.99
2016-09-01T02:00:00.751Z,1014.02
2016-09-01T02:01:00.785Z,1014.02
2016-09-01T02:02:00.732Z,1014.06
2016-09-01T02:03:00.711Z,1014.1
2016-09-01T02:04:00.696Z,1014.1
2016-09-01T02:05:00.732Z,1014.1
2016-09-01T02:06:00.668Z,1014.1
2016-09-01T02:07:00.656Z,1014.1
2016-09-01T02:08:00.640Z,1014.13
2016-09-01T02:09:00.635Z,1014.12
2016-09-01T02:10:00.621Z,1014.09
2016-09-01T02:11:00.605Z,1014.12
2016-09-01T02:12:00.590Z,1014.11
2016-09-01T02:13:00.578Z,1014.12
2016-09-01T02:14:00.564Z,1014.13
2016-09-01T02:15:00.550Z,1014.11
2016-09-01T02:16:00.538Z,1014.1
2016-09-01T02:17:00.529Z,1014.14
2016-09-01T02:18:00.513Z,1014.13
2016-09-01T02:19:00.500Z,1014.13
2016-09-01T02:20:00.491Z,1014.13
2016-09-01T02:21:00.476Z,1014.16
2016-09-01T02:22:00.462Z,1014.19
2016-09-01T02:23:00.452Z,1014.18
2016-09-01T02:24:00.441Z,1014.18
2016-09-01T02:25:00.427Z,1014.18
2016-09-01T02:26:00.411Z,1014.19
2016-09-01T02:27:00.406Z,1014.21
2016-09-01T02:28:00.390Z,1014.19
2016-09-01T02:29:00.372Z,1014.25
2016-09-01T02:30:00.358Z,1014.25
2016-09-01T02:31:00.346Z,1014.24
2016-09-01T02:32:00.332Z,1014.26
2016-09-01T02:33:00.321Z,1014.24
2016-09-01T02:34:00.310Z,1014.27
2016-09-01T02:35:00.297Z,1014.29
2016-09-01T02:36:00.285Z,1014.28
2016-09-01T02:37:00.273Z,1014.26
2016-09-01T02:38:00.255Z,1014.27
2016-09-01T02:39:00.248Z,1014.26
2016-09-01T02:40:00.232Z,1014.25
2016-09-01T02:41:00.221Z,1014.29
2016-09-01T02:42:00.210Z,1014.25
2016-09-01T02:43:00.199Z,1014.24
2016-09-01T02:44:00.187Z,1014.21
2016-09-01T02:45:00.171Z,1014.2
2016-09-01T02:46:00.155Z,1014.2
2016-09-01T02:47:00.141Z,1014.17
2016-09-01T02:48:00.138Z,1014.16
2016-09-01T02:49:00.115Z,1014.16
2016-09-01T02:50:00.104Z,1014.16
2016-09-01T02:51:00.090Z,1014.13
2016-09-01T02:52:00.081Z,1014.17
2016-09-01T02:53:00.070Z,1014.15
2016-09-01T02:54:00.052Z,1014.15
2016-09-01T02:55:00.039Z,1014.16
2016-09-01T02:56:00.028Z,1014.18
2016-09-01T02:57:00.021Z,1014.18
2016-09-01T02:58:00.001Z,1014.14
2016-09-01T02:58:59.984Z,1014.14
2016-09-01T02:59:59.973Z,1014.12
2016-09-01T03:00:59.967Z,1014.13
2016-09-01T03:01:59.949Z,1014.13
2016-09-01T03:02:59.941Z,1014.12
2016-09-01T03:03:59.923Z,1014.13
2016-09-01T03:04:59.910Z,1014.16
2016-09-01T03:05:59.897Z,1014.17
2016-09-01T03:06:59.889Z,1014.17
2016-09-01T03:07:59.871Z,1014.19
2016-09-01T03:08:59.863Z,1014.16
2016-09-01T03:09:59.849Z,1014.19
2016-09-01T03:10:59.834Z,1014.16
2016-09-01T03:11:59.820Z,1014.17
2016-09-01T03:12:59.809Z,1014.2
2016-09-01T03:13:59.794Z,1014.16
2016-09-01T03:14:59.780Z,1014.18
2016-09-01T03:15:59.768Z,1014.17
2016-09-01T03:16:59.756Z,1014.2
2016-09-01T03:17:59.739Z,1014.19
2016-09-01T03:18:59.729Z,1014.2
2016-09-01T03:19:59.715Z,1014.19
2016-09-01T03:20:59.700Z,1014.19
2016-09-01T03:21:59.693Z,1014.22
2016-09-01T03:22:59.680Z,1014.26
2016-09-01T03:23:59.672Z,1014.22
2016-09-01T03:24:59.652Z,1014.22
2016-09-01T03:25:59.641Z,1014.2
2016-09-01T03:26:59.628Z,1014.2
2016-09-01T03:27:59.611Z,1014.21
2016-09-01T03:28:59.599Z,1014.21
2016-09-01T03:29:59.585Z,1014.19
2016-09-01T03:30:59.571Z,1014.18
2016-09-01T03:31:59.559Z,1014.15
2016-09-01T03:32:59.551Z,1014.14
2016-09-01T03:33:59.535Z,1014.15
2016-09-01T03:34:59.515Z,1014.17
2016-09-01T03:35:59.512Z,1014.14
2016-09-01T03:36:59.496Z,1014.17
2016-09-01T03:37:59.482Z,1014.14
2016-09-01T03:38:59.470Z,1014.16
2016-09-01T03:39:59.459Z,1014.15
2016-09-01T03:40:59.450Z,1014.19
2016-09-01T03:41:59.427Z,1014.23
2016-09-01T03:42:59.420Z,1014.2
2016-09-01T03:43:59.400Z,1014.26
2016-09-01T03:44:59.387Z,1014.21
2016-09-01T03:45:59.376Z,1014.23
2016-09-01T03:46:59.361Z,1014.21
2016-09-01T03:47:59.345Z,1014.25
2016-09-01T03:48:59.341Z,1014.23
2016-09-01T03:49:59.320Z,1014.27
2016-09-01T03:50:59.310Z,1014.25
2016-09-01T03:51:59.302Z,1014.26
2016-09-01T03:52:59.282Z,1014.21
2016-09-01T03:53:59.270Z,1014.21
2016-09-01T03:54:59.259Z,1014.26
2016-09-01T03:55:59.241Z,1014.24
2016-09-01T03:56:59.230Z,1014.28
2016-09-01T03:57:59.216Z,1014.27
2016-09-01T03:58:59.201Z,1014.31
2016-09-01T03:59:59.189Z,1014.3
2016-09-01T04:00:59.181Z,1014.32
2016-09-01T04:01:59.170Z,1014.32
2016-09-01T04:02:59.149Z,1014.32
2016-09-01T04:03:59.141Z,1014.34
2016-09-01T04:04:59.122Z,1014.35
2016-09-01T04:05:59.111Z,1014.35
2016-09-01T04:06:59.096Z,1014.36
2016-09-01T04:07:59.082Z,1014.36
2016-09-01T04:08:59.071Z,1014.38
2016-09-01T04:09:59.055Z,1014.39
2016-09-01T04:10:59.039Z,1014.39
2016-09-01T04:11:59.031Z,1014.4
2016-09-01T04:12:59.022Z,1014.41
2016-09-01T04:13:59.001Z,1014.41
2016-09-01T04:14:58.987Z,1014.38
2016-09-01T04:15:58.978Z,1014.39
2016-09-01T04:16:58.961Z,1014.36
2016-09-01T04:17:58.946Z,1014.36
2016-09-01T04:18:58.934Z,1014.37
2016-09-01T04:19:58.924Z,1014.33
2016-09-01T04:20:58.908Z,1014.32
2016-09-01T04:21:58.901Z,1014.31
2016-09-01T04:22:58.889Z,1014.28
2016-09-01T04:23:58.868Z,1014.3
2016-09-01T04:24:58.873Z,1014.3
2016-09-01T04:25:58.840Z,1014.33
2016-09-01T04:26:58.831Z,1014.31
2016-09-01T04:27:58.816Z,1014.29
2016-09-01T04:28:58.861Z,1014.29
2016-09-01T04:29:58.791Z,1014.27
2016-09-01T04:30:58.811Z,1014.3
2016-09-01T04:31:58.762Z,1014.32
2016-09-01T04:32:58.766Z,1014.34
2016-09-01T04:33:58.742Z,1014.36
2016-09-01T04:34:58.727Z,1014.37
2016-09-01T04:35:58.710Z,1014.42
2016-09-01T04:36:58.698Z,1014.42
2016-09-01T04:37:58.681Z,1014.42
2016-09-01T04:38:58.672Z,1014.43
2016-09-01T04:39:58.656Z,1014.43
2016-09-01T04:40:58.641Z,1014.43
2016-09-01T04:41:58.630Z,1014.45
2016-09-01T04:42:58.623Z,1014.48
2016-09-01T04:43:58.601Z,1014.46
2016-09-01T04:44:58.592Z,1014.43
2016-09-01T04:45:58.579Z,1014.44
2016-09-01T04:46:58.561Z,1014.44
2016-09-01T04:47:58.546Z,1014.45
2016-09-01T04:48:58.535Z,1014.46
2016-09-01T04:49:58.521Z,1014.51
2016-09-01T04:50:58.506Z,1014.47
2016-09-01T04:51:58.492Z,1014.51
2016-09-01T04:52:58.479Z,1014.5
2016-09-01T04:53:58.466Z,1014.5
2016-09-01T04:54:58.456Z,1014.49
2016-09-01T04:55:58.439Z,1014.47
2016-09-01T04:56:58.429Z,1014.46
2016-09-01T04:57:58.414Z,1014.43
2016-09-01T04:58:58.398Z,1014.41
2016-09-01T04:59:58.390Z,1014.41
2016-09-01T05:00:58.369Z,1014.37
2016-09-01T05:01:58.361Z,1014.34
2016-09-01T05:02:58.350Z,1014.38
2016-09-01T05:03:58.327Z,1014.37
2016-09-01T05:04:58.319Z,1014.36
2016-09-01T05:05:58.308Z,1014.44
2016-09-01T05:06:58.292Z,1014.48
2016-09-01T05:07:58.277Z,1014.47
2016-09-01T05:08:58.267Z,1014.48
2016-09-01T05:09:58.248Z,1014.5
2016-09-01T05:10:58.239Z,1014.48
2016-09-01T05:11:58.222Z,1014.51
2016-09-01T05:12:58.209Z,1014.52
2016-09-01T05:13:58.196Z,1014.52
2016-09-01T05:14:58.194Z,1014.54
2016-09-01T05:15:58.172Z,1014.56
2016-09-01T05:16:58.150Z,1014.57
2016-09-01T05:17:58.141Z,1014.63
2016-09-01T05:18:58.130Z,1014.62
2016-09-01T05:19:58.118Z,1014.65
2016-09-01T05:20:58.098Z,1014.67
2016-09-01T05:21:58.090Z,1014.67
2016-09-01T05:22:58.077Z,1014.68
2016-09-01T05:23:58.058Z,1014.69
2016-09-01T05:24:58.048Z,1014.68
2016-09-01T05:25:58.035Z,1014.67
2016-09-01T05:26:58.019Z,1014.71
2016-09-01T05:27:58.011Z,1014.69
2016-09-01T05:28:57.990Z,1014.71
2016-09-01T05:29:57.978Z,1014.68
2016-09-01T05:30:57.966Z,1014.74
2016-09-01T05:31:57.951Z,1014.73
2016-09-01T05:32:57.941Z,1014.75
2016-09-01T05:33:57.933Z,1014.71
2016-09-01T05:34:57.922Z,1014.72
2016-09-01T05:35:57.896Z,1014.78
2016-09-01T05:36:57.889Z,1014.79
2016-09-01T05:37:57.880Z,1014.8
2016-09-01T05:38:57.856Z,1014.81
2016-09-01T05:39:57.852Z,1014.82
2016-09-01T05:40:57.841Z,1014.85
2016-09-01T05:41:57.819Z,1014.83
2016-09-01T05:42:57.808Z,1014.87
2016-09-01T05:43:57.801Z,1014.89
2016-09-01T05:44:57.829Z,1014.88
2016-09-01T05:45:57.768Z,1014.9
2016-09-01T05:46:57.750Z,1014.95
2016-09-01T05:47:57.740Z,1014.94
2016-09-01T05:48:57.731Z,1014.93
2016-09-01T05:49:57.711Z,1014.93
2016-09-01T05:50:57.701Z,1014.94
2016-09-01T05:51:57.692Z,1014.95
2016-09-01T05:52:57.680Z,1014.94
2016-09-01T05:53:57.660Z,1014.98
2016-09-01T05:54:57.651Z,1014.95
2016-09-01T05:55:57.641Z,1014.94
2016-09-01T05:56:57.621Z,1014.95
2016-09-01T05:57:57.610Z,1014.98
2016-09-01T05:58:57.593Z,1014.92
2016-09-01T05:59:57.581Z,1014.93
2016-09-01T06:00:57.569Z,1014.94
2016-09-01T06:01:57.554Z,1014.96
2016-09-01T06:02:57.538Z,1014.94
2016-09-01T06:03:57.525Z,1014.95
2016-09-01T06:04:57.521Z,1014.95
2016-09-01T06:05:57.511Z,1015.01
2016-09-01T06:06:57.491Z,1015.04
2016-09-01T06:07:57.482Z,1014.99
2016-09-01T06:08:57.461Z,1014.99
2016-09-01T06:09:57.461Z,1015.01
2016-09-01T06:10:57.436Z,1014.99
2016-09-01T06:11:57.430Z,1015.03
2016-09-01T06:12:57.415Z,1015.04
2016-09-01T06:13:57.401Z,1015.06
2016-09-01T06:14:57.388Z,1015.03
2016-09-01T06:15:57.380Z,1015.01
2016-09-01T06:16:57.363Z,1015.06
2016-09-01T06:17:57.350Z,1015.08
2016-09-01T06:18:57.336Z,1015.1
2016-09-01T06:19:57.330Z,1015.12
2016-09-01T06:20:57.312Z,1015.13
2016-09-01T06:21:57.300Z,1015.13
2016-09-01T06:22:57.292Z,1015.14
2016-09-01T06:23:57.271Z,1015.14
2016-09-01T06:24:57.262Z,1015.17
2016-09-01T06:25:57.250Z,1015.15
2016-09-01T06:26:57.242Z,1015.15
2016-09-01T06:27:57.218Z,1015.14
2016-09-01T06:28:57.211Z,1015.14
2016-09-01T06:29:57.201Z,1015.14
2016-09-01T06:30:57.187Z,1015.15
2016-09-01T06:31:57.171Z,1015.16
2016-09-01T06:32:57.162Z,1015.16
2016-09-01T06:33:57.148Z,1015.19
2016-09-01T06:34:57.139Z,1015.17
2016-09-01T06:35:57.123Z,1015.18
2016-09-01T06:36:57.112Z,1015.19
2016-09-01T06:37:57.095Z,1015.19
2016-09-01T06:38:57.086Z,1015.18
2016-09-01T06:39:57.079Z,1015.22
2016-09-01T06:40:57.060Z,1015.26
2016-09-01T06:41:57.048Z,1015.28
2016-09-01T06:42:57.035Z,1015.34
2016-09-01T06:43:57.032Z,1015.35
2016-09-01T06:44:57.011Z,1015.34
2016-09-01T06:45:56.999Z,1015.3
2016-09-01T06:46:56.988Z,1015.31
2016-09-01T06:47:56.980Z,1015.34
2016-09-01T06:48:56.970Z,1015.34
2016-09-01T06:49:56.963Z,1015.38
2016-09-01T06:50:56.941Z,1015.44
2016-09-01T06:51:56.930Z,1015.4
2016-09-01T06:52:56.916Z,1015.4
2016-09-01T06:53:56.909Z,1015.45
2016-09-01T06:54:56.899Z,1015.42
2016-09-01T06:55:56.890Z,1015.45
2016-09-01T06:56:56.869Z,1015.53
2016-09-01T06:57:56.862Z,1015.5
2016-09-01T06:58:56.857Z,1015.48
2016-09-01T06:59:56.842Z,1015.47
2016-09-01T07:00:56.835Z,1015.54
2016-09-01T07:01:56.820Z,1015.52
2016-09-01T07:02:56.816Z,1015.52
2016-09-01T07:03:56.822Z,1015.52
2016-09-01T07:04:56.802Z,1015.52
2016-09-01T07:05:56.793Z,1015.54
2016-09-01T07:06:56.796Z,1015.57
2016-09-01T07:07:56.768Z,1015.63
2016-09-01T07:08:56.808Z,1015.65
2016-09-01T07:09:56.751Z,1015.67
2016-09-01T07:10:56.748Z,1015.69
2016-09-01T07:11:56.737Z,1015.7
2016-09-01T07:12:56.729Z,1015.7
2016-09-01T07:13:56.727Z,1015.74
2016-09-01T07:14:56.721Z,1015.77
2016-09-01T07:15:56.710Z,1015.83
2016-09-01T07:16:56.698Z,1015.84
2016-09-01T07:17:56.691Z,1015.88
2016-09-01T07:18:56.691Z,1015.85
2016-09-01T07:19:56.678Z,1015.84
2016-09-01T07:20:56.670Z,1015.89
2016-09-01T07:21:56.671Z,1015.93
2016-09-01T07:22:56.661Z,1015.92
2016-09-01T07:23:56.648Z,1015.92
2016-09-01T07:24:56.653Z,1015.91
2016-09-01T07:25:56.628Z,1015.91
2016-09-01T07:26:56.627Z,1015.94
2016-09-01T07:27:56.618Z,1015.92
2016-09-01T07:28:56.611Z,1016.01
2016-09-01T07:29:56.605Z,1016
2016-09-01T07:30:56.598Z,1016.05
2016-09-01T07:31:56.587Z,1016.06
2016-09-01T07:32:56.579Z,1016.08
2016-09-01T07:33:56.570Z,1016.04
2016-09-01T07:34:56.566Z,1016.01
2016-09-01T07:35:56.555Z,1016.02
2016-09-01T07:36:56.547Z,1016.06
2016-09-01T07:37:56.538Z,1016.05
2016-09-01T07:38:56.533Z,1016.08
2016-09-01T07:39:56.524Z,1016.1
2016-09-01T07:40:56.521Z,1016.13
2016-09-01T07:41:56.511Z,1016.15
2016-09-01T07:42:56.505Z,1016.16
2016-09-01T07:43:56.497Z,1016.11
2016-09-01T07:44:56.491Z,1016.13
2016-09-01T07:45:56.487Z,1016.11
2016-09-01T07:46:56.475Z,1016.13
2016-09-01T07:47:56.479Z,1016.09
2016-09-01T07:48:56.471Z,1016.1
2016-09-01T07:49:56.462Z,1016
2016-09-01T07:50:56.460Z,1016.05
2016-09-01T07:51:56.456Z,1016.01
2016-09-01T07:52:56.449Z,1016.04
2016-09-01T07:53:56.450Z,1016
2016-09-01T07:54:56.438Z,1016.03
2016-09-01T07:55:56.446Z,1016.06
2016-09-01T07:56:56.431Z,1016.06
2016-09-01T07:57:56.431Z,1016.08
2016-09-01T07:58:56.427Z,1016.08
2016-09-01T07:59:56.428Z,1016.09
2016-09-01T08:00:56.422Z,1016.11
2016-09-01T08:01:56.415Z,1016.1
2016-09-01T08:02:56.421Z,1016.07
2016-09-01T08:03:56.407Z,1016.15
2016-09-01T08:04:56.407Z,1016.18
2016-09-01T08:05:56.403Z,1016.17
2016-09-01T08:06:56.410Z,1016.16
2016-09-01T08:07:56.402Z,1016.18
2016-09-01T08:08:56.400Z,1016.15
2016-09-01T08:09:56.396Z,1016.17
2016-09-01T08:10:56.393Z,1016.16
2016-09-01T08:11:56.399Z,1016.15
2016-09-01T08:12:56.393Z,1016.16
2016-09-01T08:13:56.394Z,1016.21
2016-09-01T08:14:56.400Z,1016.21
2016-09-01T08:15:56.388Z,1016.23
2016-09-01T08:16:56.390Z,1016.25
2016-09-01T08:17:56.387Z,1016.22
2016-09-01T08:18:56.390Z,1016.27
2016-09-01T08:19:56.391Z,1016.29
2016-09-01T08:20:56.385Z,1016.26
2016-09-01T08:21:56.389Z,1016.3
2016-09-01T08:22:56.379Z,1016.25
2016-09-01T08:23:56.378Z,1016.28
2016-09-01T08:24:56.377Z,1016.28
2016-09-01T08:25:56.378Z,1016.36
2016-09-01T08:26:56.380Z,1016.32
2016-09-01T08:27:56.378Z,1016.35
2016-09-01T08:28:56.378Z,1016.31
2016-09-01T08:29:56.389Z,1016.34
2016-09-01T08:30:56.381Z,1016.43
2016-09-01T08:31:56.389Z,1016.38
2016-09-01T08:32:56.390Z,1016.4
2016-09-01T08:33:56.388Z,1016.4
2016-09-01T08:34:56.384Z,1016.47
2016-09-01T08:35:56.378Z,1016.47
2016-09-01T08:36:56.387Z,1016.49
2016-09-01T08:37:56.385Z,1016.44
2016-09-01T08:38:56.390Z,1016.47
2016-09-01T08:39:56.405Z,1016.47
2016-09-01T08:40:56.391Z,1016.5
2016-09-01T08:41:56.385Z,1016.51
2016-09-01T08:42:56.387Z,1016.48
2016-09-01T08:43:56.437Z,1016.48
2016-09-01T08:44:56.389Z,1016.47
2016-09-01T08:45:56.389Z,1016.46
2016-09-01T08:46:56.387Z,1016.4
2016-09-01T08:47:56.389Z,1016.42
2016-09-01T08:48:56.384Z,1016.42
2016-09-01T08:49:56.389Z,1016.43
2016-09-01T08:50:56.384Z,1016.45
2016-09-01T08:51:56.390Z,1016.41
2016-09-01T08:52:56.384Z,1016.4
2016-09-01T08:53:56.385Z,1016.35
2016-09-01T08:54:56.382Z,1016.35
2016-09-01T08:55:56.383Z,1016.32
2016-09-01T08:56:56.385Z,1016.32
2016-09-01T08:57:56.383Z,1016.3
2016-09-01T08:58:56.386Z,1016.3
2016-09-01T08:59:56.385Z,1016.33
2016-09-01T09:00:56.387Z,1016.31
2016-09-01T09:01:56.387Z,1016.25
2016-09-01T09:02:56.388Z,1016.25
2016-09-01T09:03:56.384Z,1016.24
2016-09-01T09:04:56.389Z,1016.22
2016-09-01T09:05:56.394Z,1016.21
2016-09-01T09:06:56.397Z,1016.21
2016-09-01T09:07:56.389Z,1016.21
2016-09-01T09:08:56.494Z,1016.28
2016-09-01T09:09:56.395Z,1016.23
2016-09-01T09:10:56.389Z,1016.3
2016-09-01T09:11:56.395Z,1016.27
2016-09-01T09:12:56.390Z,1016.25
2016-09-01T09:13:56.396Z,1016.25
2016-09-01T09:14:56.393Z,1016.25
2016-09-01T09:15:56.393Z,1016.24
2016-09-01T09:16:56.397Z,1016.27
2016-09-01T09:17:56.838Z,1016.28
2016-09-01T09:18:56.398Z,1016.28
2016-09-01T09:19:56.396Z,1016.27
2016-09-01T09:20:56.400Z,1016.3
2016-09-01T09:21:56.398Z,1016.34
2016-09-01T09:22:56.398Z,1016.31
2016-09-01T09:23:56.404Z,1016.29
2016-09-01T09:24:56.408Z,1016.4
2016-09-01T09:25:56.409Z,1016.37
2016-09-01T09:26:56.409Z,1016.36
2016-09-01T09:27:56.409Z,1016.32
2016-09-01T09:28:56.406Z,1016.35
2016-09-01T09:29:56.421Z,1016.33
2016-09-01T09:30:56.419Z,1016.29
2016-09-01T09:31:56.421Z,1016.29
2016-09-01T09:32:56.417Z,1016.26
2016-09-01T09:33:56.636Z,1016.26
2016-09-01T09:34:56.418Z,1016.28
2016-09-01T09:35:56.419Z,1016.33
2016-09-01T09:36:56.421Z,1016.27
2016-09-01T09:37:56.415Z,1016.3
2016-09-01T09:38:56.419Z,1016.31
2016-09-01T09:39:56.417Z,1016.36
2016-09-01T09:40:56.424Z,1016.27
2016-09-01T09:41:56.426Z,1016.28
2016-09-01T09:42:56.430Z,1016.32
2016-09-01T09:43:56.426Z,1016.28
2016-09-01T09:44:56.432Z,1016.26
2016-09-01T09:45:56.423Z,1016.25
2016-09-01T09:46:56.426Z,1016.2
2016-09-01T09:47:56.431Z,1016.22
2016-09-01T09:48:56.428Z,1016.15
2016-09-01T09:49:56.429Z,1016.1
2016-09-01T09:50:56.429Z,1016.13
2016-09-01T09:51:56.434Z,1016.1
2016-09-01T09:52:56.439Z,1016.09
2016-09-01T09:53:56.433Z,1016.13
2016-09-01T09:54:56.435Z,1016.07
2016-09-01T09:55:56.428Z,1016.04
2016-09-01T09:56:56.432Z,1016.03
2016-09-01T09:57:56.433Z,1015.97
2016-09-01T09:58:56.434Z,1015.99
2016-09-01T09:59:56.434Z,1016.01
2016-09-01T10:00:56.432Z,1015.97
2016-09-01T10:01:56.428Z,1016.02
2016-09-01T10:02:56.436Z,1015.94
2016-09-01T10:03:56.426Z,1015.97
2016-09-01T10:04:56.434Z,1016.01
2016-09-01T10:05:56.429Z,1015.94
2016-09-01T10:06:56.428Z,1015.95
2016-09-01T10:07:56.430Z,1015.89
2016-09-01T10:08:56.429Z,1015.87
2016-09-01T10:09:56.428Z,1015.88
2016-09-01T10:10:56.428Z,1015.86
2016-09-01T10:11:56.432Z,1015.85
2016-09-01T10:12:56.598Z,1015.9
2016-09-01T10:13:56.421Z,1015.84
2016-09-01T10:14:56.417Z,1015.85
2016-09-01T10:15:56.417Z,1015.85
2016-09-01T10:16:56.417Z,1015.87
2016-09-01T10:17:56.409Z,1015.85
2016-09-01T10:18:56.410Z,1015.89
2016-09-01T10:19:56.410Z,1015.85
2016-09-01T10:20:56.407Z,1015.89
2016-09-01T10:21:56.408Z,1015.87
2016-09-01T10:22:56.401Z,1015.86
2016-09-01T10:23:56.397Z,1015.89
2016-09-01T10:24:56.397Z,1015.84
2016-09-01T10:25:56.391Z,1015.8
2016-09-01T10:26:56.388Z,1015.86
2016-09-01T10:27:56.384Z,1015.82
2016-09-01T10:28:56.381Z,1015.89
2016-09-01T10:29:56.379Z,1015.88
2016-09-01T10:30:56.373Z,1015.83
2016-09-01T10:31:56.371Z,1015.85
2016-09-01T10:32:56.368Z,1015.84
2016-09-01T10:33:56.364Z,1015.85
2016-09-01T10:34:56.368Z,1015.8
2016-09-01T10:35:56.358Z,1015.77
2016-09-01T10:36:56.358Z,1015.76
2016-09-01T10:37:56.348Z,1015.77
2016-09-01T10:38:56.360Z,1015.73
2016-09-01T10:39:56.348Z,1015.76
2016-09-01T10:40:56.338Z,1015.7
2016-09-01T10:41:56.351Z,1015.77
2016-09-01T10:42:56.342Z,1015.72
2016-09-01T10:43:56.327Z,1015.82
2016-09-01T10:44:56.329Z,1015.77
2016-09-01T10:45:56.328Z,1015.74
2016-09-01T10:46:56.322Z,1015.75
2016-09-01T10:47:56.318Z,1015.75
2016-09-01T10:48:56.312Z,1015.8
2016-09-01T10:49:56.309Z,1015.8
2016-09-01T10:50:56.309Z,1015.77
2016-09-01T10:51:56.304Z,1015.8
2016-09-01T10:52:56.298Z,1015.8
2016-09-01T10:53:56.302Z,1015.8
2016-09-01T10:54:56.288Z,1015.77
2016-09-01T10:55:56.287Z,1015.83
2016-09-01T10:56:56.290Z,1015.79
2016-09-01T10:57:56.280Z,1015.72
2016-09-01T10:58:56.281Z,1015.7
2016-09-01T10:59:56.269Z,1015.7
2016-09-01T11:00:56.265Z,1015.73
2016-09-01T11:01:56.281Z,1015.71
2016-09-01T11:02:56.259Z,1015.68
2016-09-01T11:03:56.255Z,1015.71
2016-09-01T11:04:56.256Z,1015.69
2016-09-01T11:05:56.249Z,1015.61
2016-09-01T11:06:56.252Z,1015.65
2016-09-01T11:07:56.247Z,1015.69
2016-09-01T11:08:56.241Z,1015.71
2016-09-01T11:09:56.230Z,1015.78
2016-09-01T11:10:56.227Z,1015.7
2016-09-01T11:11:56.230Z,1015.72
2016-09-01T11:12:56.218Z,1015.7
2016-09-01T11:13:56.221Z,1015.66
2016-09-01T11:14:56.206Z,1015.67
2016-09-01T11:15:56.201Z,1015.66
2016-09-01T11:16:56.203Z,1015.62
2016-09-01T11:17:56.200Z,1015.62
2016-09-01T11:18:56.191Z,1015.62
2016-09-01T11:19:56.189Z,1015.6
2016-09-01T11:20:56.183Z,1015.6
2016-09-01T11:21:56.191Z,1015.58
2016-09-01T11:22:56.188Z,1015.62
2016-09-01T11:23:56.170Z,1015.56
2016-09-01T11:24:56.173Z,1015.52
2016-09-01T11:25:56.165Z,1015.56
2016-09-01T11:26:56.161Z,1015.52
2016-09-01T11:27:56.152Z,1015.52
2016-09-01T11:28:56.147Z,1015.44
2016-09-01T11:29:56.147Z,1015.43
2016-09-01T11:30:56.137Z,1015.46
2016-09-01T11:31:56.140Z,1015.42
2016-09-01T11:32:56.138Z,1015.35
2016-09-01T11:33:56.128Z,1015.42
2016-09-01T11:34:56.123Z,1015.41
2016-09-01T11:35:56.120Z,1015.36
2016-09-01T11:36:56.113Z,1015.4
2016-09-01T11:37:56.108Z,1015.38
2016-09-01T11:38:56.109Z,1015.33
2016-09-01T11:39:56.099Z,1015.32
2016-09-01T11:40:56.102Z,1015.39
2016-09-01T11:41:56.087Z,1015.36
2016-09-01T11:42:56.092Z,1015.38
2016-09-01T11:43:56.082Z,1015.36
2016-09-01T11:44:56.081Z,1015.33
2016-09-01T11:45:56.077Z,1015.34
2016-09-01T11:46:56.068Z,1015.3
2016-09-01T11:47:56.064Z,1015.29
2016-09-01T11:48:56.062Z,1015.36
2016-09-01T11:49:56.054Z,1015.26
2016-09-01T11:50:56.049Z,1015.3
2016-09-01T11:51:56.047Z,1015.3
2016-09-01T11:52:56.047Z,1015.29
2016-09-01T11:53:56.040Z,1015.24
2016-09-01T11:54:56.038Z,1015.17
2016-09-01T11:55:56.032Z,1015.19
2016-09-01T11:56:56.029Z,1015.22
2016-09-01T11:57:56.020Z,1015.23
2016-09-01T11:58:56.020Z,1015.22
2016-09-01T11:59:56.174Z,1015.21
2016-09-01T12:00:56.004Z,1015.21
2016-09-01T12:01:55.997Z,1015.13
2016-09-01T12:02:56.001Z,1015.15
2016-09-01T12:03:55.989Z,1015.18
2016-09-01T12:04:55.989Z,1015.1
2016-09-01T12:05:55.977Z,1015.12
2016-09-01T12:06:55.980Z,1015.08
2016-09-01T12:07:55.982Z,1015.05